.
WxDataArchive / Data Records for 2014-06-26
2014-06-25 June 2014 2014-06-27

Data Records for Thursday, 26 June 2014

Time	Temp	Chill	HIndex	Humid	Dewpt	 Wind 	HiWind	WindDir	Rain 	Barom
-----	----	-----	------	-----	-----	------	------	-------	-----	-----
00:00	69.6	69.6	69.6	83	64.2	0	3	112	0.00	29.971 
00:05	69.4	69.4	69.4	84	64.3	0	0	---	0.00	29.971 
00:10	69.4	69.4	69.4	84	64.3	0	1	112	0.00	29.971 
00:15	69.3	69.3	69.3	84	64.2	0	1	112	0.00	29.973 
00:20	69.1	69.1	69.1	84	64.1	0	1	112	0.00	29.973 
00:25	68.8	68.8	68.8	85	64.1	0	0	---	0.00	29.973 
00:30	68.6	68.6	68.6	85	63.9	0	0	---	0.00	29.970 
00:35	68.4	68.4	68.4	86	64.0	0	0	---	0.00	29.970 
00:40	68.3	68.3	68.3	86	63.9	0	0	---	0.00	29.970 
00:45	68.1	68.1	68.1	87	64.1	0	0	---	0.00	29.967 
00:50	67.9	67.9	67.9	87	63.9	0	0	---	0.00	29.967 
00:55	67.6	67.6	67.6	87	63.6	0	0	---	0.00	29.967 
01:00	67.4	67.4	67.4	88	63.7	0	0	---	0.00	29.973 
01:05	67.3	67.3	67.3	88	63.6	0	0	---	0.00	29.973 
01:10	67.1	67.1	67.1	88	63.4	0	0	---	0.00	29.973 
01:15	66.9	66.9	66.9	89	63.5	0	0	---	0.00	29.978 
01:20	66.8	66.8	66.8	89	63.4	0	0	---	0.00	29.978 
01:25	66.8	66.8	66.8	89	63.4	0	0	---	0.00	29.978 
01:30	66.6	66.6	66.6	90	63.6	0	0	---	0.00	29.979 
01:35	66.4	66.4	66.4	90	63.4	0	0	---	0.00	29.979 
01:40	66.3	66.3	66.3	90	63.3	0	0	---	0.00	29.979 
01:45	66.3	66.3	66.3	90	63.3	0	0	---	0.00	29.983 
01:50	66.1	66.1	66.1	91	63.4	0	0	---	0.00	29.983 
01:55	66.1	66.1	66.1	91	63.4	0	0	---	0.00	29.983 
02:00	66.0	66.0	66.0	91	63.3	0	0	---	0.00	29.983 
02:05	65.8	65.8	65.8	91	63.1	0	0	---	0.00	29.983 
02:10	65.8	65.8	65.8	91	63.1	0	0	---	0.00	29.983 
02:15	65.6	65.6	65.6	92	63.2	0	0	---	0.00	29.981 
02:20	65.6	65.6	65.6	92	63.2	0	0	---	0.00	29.981 
02:25	65.5	65.5	65.5	92	63.1	0	0	---	0.00	29.981 
02:30	65.3	65.3	65.3	92	62.9	0	0	---	0.00	29.981 
02:35	65.2	65.2	65.2	92	62.8	0	0	---	0.00	29.981 
02:40	65.2	65.2	65.2	92	62.8	0	0	---	0.00	29.981 
02:45	65.0	65.0	65.0	92	62.6	0	0	---	0.00	29.981 
02:50	65.0	65.0	65.0	92	62.6	0	0	---	0.00	29.981 
02:55	65.0	65.0	65.0	92	62.6	0	0	---	0.00	29.981 
03:00	64.8	64.8	64.8	92	62.4	0	0	---	0.00	29.981 
03:05	64.7	64.7	64.7	92	62.3	0	0	---	0.00	29.981 
03:10	64.7	64.7	64.7	93	62.6	0	0	---	0.00	29.981 
03:15	64.7	64.7	64.7	93	62.6	0	0	---	0.00	29.982 
03:20	64.8	64.8	64.8	93	62.7	0	0	---	0.00	29.982 
03:25	64.7	64.7	64.7	93	62.6	0	0	---	0.00	29.982 
03:30	64.7	64.7	64.7	93	62.6	0	0	---	0.00	29.981 
03:35	64.7	64.7	64.7	93	62.6	0	0	---	0.00	29.981 
03:40	64.5	64.5	64.5	93	62.4	0	0	---	0.00	29.981 
03:45	64.5	64.5	64.5	93	62.4	0	0	---	0.00	29.982 
03:50	64.5	64.5	64.5	93	62.4	0	0	---	0.00	29.982 
03:55	64.8	64.8	64.8	94	63.0	0	0	---	0.00	29.982 
04:00	64.8	64.8	64.8	94	63.0	0	0	---	0.00	29.983 
04:05	64.8	64.8	64.8	94	63.0	0	0	---	0.00	29.983 
04:10	64.8	64.8	64.8	93	62.7	0	0	---	0.00	29.983 
04:15	64.8	64.8	64.8	94	63.0	0	0	---	0.00	29.982 
04:20	64.8	64.8	64.8	94	63.0	0	1	112	0.00	29.982 
04:25	64.7	64.7	64.7	94	62.9	0	0	---	0.00	29.982 
04:30	64.7	64.7	64.7	93	62.6	0	0	---	0.00	29.984 
04:35	64.5	64.5	64.5	93	62.4	0	0	---	0.00	29.984 
04:40	64.3	64.3	64.3	93	62.2	0	1	112	0.00	29.984 
04:45	64.3	64.3	64.3	93	62.2	0	0	---	0.00	29.988 
04:50	64.3	64.3	64.3	93	62.2	0	0	---	0.00	29.988 
04:55	64.2	64.2	64.2	93	62.1	0	0	---	0.00	29.988 
05:00	64.2	64.2	64.2	93	62.1	0	0	---	0.00	29.992 
05:05	64.0	64.0	64.0	93	61.9	0	1	112	0.00	29.992 
05:10	64.0	64.0	64.0	93	61.9	0	1	112	0.00	29.992 
05:15	63.9	63.9	63.9	93	61.8	0	1	112	0.00	30.001 
05:20	63.9	63.9	63.9	93	61.8	0	2	112	0.00	30.001 
05:25	63.7	63.7	63.7	93	61.6	0	1	112	0.00	30.001 
05:30	63.7	63.7	63.7	93	61.6	0	1	112	0.00	30.002 
05:35	63.7	63.7	63.7	93	61.6	0	2	112	0.00	30.002 
05:40	63.7	63.7	63.7	93	61.6	0	2	112	0.00	30.002 
05:45	63.7	63.7	63.7	94	61.9	0	1	112	0.00	30.009 
05:50	63.7	63.7	63.7	94	61.9	0	1	112	0.00	30.009 
05:55	63.7	63.7	63.7	94	61.9	0	2	112	0.00	30.009 
06:00	63.7	63.7	63.7	94	61.9	0	2	112	0.00	30.010 
06:05	63.7	63.7	63.7	94	61.9	0	1	112	0.00	30.010 
06:10	63.7	63.7	63.7	94	61.9	0	1	112	0.00	30.010 
06:15	63.7	63.7	63.7	94	61.9	0	1	112	0.00	30.003 
06:20	63.7	63.7	63.7	94	61.9	0	0	---	0.00	30.003 
06:25	63.7	63.7	63.7	94	61.9	0	1	112	0.00	30.003 
06:30	63.9	63.9	63.9	95	62.4	0	0	---	0.00	30.005 
06:35	63.9	63.9	63.9	95	62.4	0	0	---	0.00	30.005 
06:40	63.9	63.9	63.9	95	62.4	0	0	---	0.00	30.005 
06:45	64.0	64.0	64.0	95	62.5	0	0	---	0.00	30.007 
06:50	64.0	64.0	64.0	95	62.5	0	0	---	0.00	30.007 
06:55	64.2	64.2	64.2	95	62.7	0	1	112	0.00	30.007 
07:00	64.2	64.2	64.2	95	62.7	0	1	112	0.00	30.013 
07:05	64.3	64.3	64.3	95	62.8	0	1	112	0.00	30.013 
07:10	64.3	64.3	64.3	95	62.8	0	1	112	0.00	30.013 
07:15	64.5	64.5	64.5	95	63.0	0	1	112	0.00	30.017 
07:20	64.5	64.5	64.5	95	63.0	0	1	112	0.00	30.017 
07:25	64.7	64.7	64.7	95	63.2	0	1	112	0.00	30.017 
07:30	64.7	64.7	64.7	95	63.2	0	1	112	0.00	30.026 
07:35	64.8	64.8	64.8	95	63.3	0	0	---	0.00	30.026 
07:40	65.0	65.0	65.0	95	63.5	0	0	---	0.00	30.026 
07:45	65.2	65.2	65.2	95	63.7	0	1	112	0.00	30.028 
07:50	65.2	65.2	65.2	95	63.7	0	0	---	0.00	30.028 
07:55	65.3	65.3	65.3	95	63.8	0	0	---	0.00	30.028 
08:00	65.5	65.5	65.5	95	64.0	0	0	---	0.00	30.027 
08:05	65.6	65.6	65.6	95	64.1	0	2	112	0.00	30.027 
08:10	66.0	66.0	66.0	95	64.5	0	1	112	0.00	30.027 
08:15	66.1	66.1	66.1	95	64.6	0	2	112	0.00	30.022 
08:20	66.3	66.3	66.3	95	64.8	0	2	112	0.00	30.022 
08:25	66.4	66.4	66.4	95	64.9	0	1	112	0.00	30.022 
08:30	66.8	66.8	66.8	95	65.3	0	2	112	0.00	30.023 
08:35	67.3	67.3	67.3	94	65.5	0	2	112	0.00	30.023 
08:40	67.4	67.4	67.4	93	65.3	0	3	112	0.00	30.023 
08:45	67.6	67.6	67.6	93	65.5	0	1	112	0.00	30.023 
08:50	67.8	67.8	67.8	93	65.7	0	1	112	0.00	30.023 
08:55	68.1	68.1	68.1	92	65.7	0	2	112	0.00	30.023 
09:00	68.3	68.3	68.3	91	65.6	0	0	---	0.00	30.028 
09:05	68.4	68.4	68.4	90	65.3	0	1	112	0.00	30.028 
09:10	68.6	68.6	68.6	90	65.5	0	2	112	0.00	30.028 
09:15	68.9	68.9	68.9	89	65.5	0	1	112	0.00	30.032 
09:20	69.3	69.3	69.3	88	65.6	0	0	---	0.00	30.032 
09:25	69.4	69.4	69.4	87	65.4	0	0	---	0.00	30.032 
09:30	69.6	69.6	69.6	86	65.2	0	1	112	0.00	30.032 
09:35	69.8	69.8	69.8	85	65.1	0	1	112	0.00	30.032 
09:40	69.9	69.9	69.9	84	64.8	0	1	112	0.00	30.032 
09:45	69.9	69.9	69.9	83	64.5	0	2	112	0.00	30.035 
09:50	69.9	69.9	69.9	83	64.5	0	1	112	0.00	30.035 
09:55	70.1	70.1	70.1	82	64.3	0	1	112	0.00	30.035 
10:00	70.1	70.1	70.1	82	64.3	0	1	112	0.00	30.039 
10:05	70.1	70.1	70.1	82	64.3	0	0	---	0.00	30.039 
10:10	70.3	70.3	70.3	81	64.2	0	3	112	0.00	30.039 
10:15	70.4	70.4	70.4	80	63.9	0	3	112	0.00	30.040 
10:20	70.8	70.8	70.8	79	64.0	0	0	---	0.00	30.040 
10:25	71.1	71.1	71.1	80	64.6	0	1	112	0.00	30.040 
10:30	71.5	71.5	71.5	78	64.3	0	2	112	0.00	30.036 
10:35	71.6	71.6	71.6	77	64.0	0	1	112	0.00	30.036 
10:40	71.8	71.8	71.8	77	64.2	0	0	---	0.00	30.036 
10:45	72.3	72.3	72.3	78	65.0	0	2	112	0.00	30.033 
10:50	72.8	72.8	72.8	77	65.2	0	1	112	0.00	30.033 
10:55	72.8	72.8	72.8	75	64.4	0	1	112	0.00	30.033 
11:00	72.3	72.3	72.3	75	63.9	0	1	112	0.00	30.033 
11:05	72.3	72.3	72.3	75	63.9	0	0	---	0.00	30.033 
11:10	72.7	72.7	72.7	78	65.4	0	0	---	0.00	30.033 
11:15	73.3	73.3	73.3	73	64.1	0	2	112	0.00	30.033 
11:20	74.7	74.7	74.7	72	65.1	0	3	112	0.00	30.033 
11:25	75.4	75.4	76.8	73	66.1	1	5	112	0.00	30.033 
11:30	75.8	75.8	77.4	71	65.7	1	3	112	0.00	30.028 
11:35	76.1	76.1	77.8	69	65.2	0	3	112	0.00	30.028 
11:40	76.7	76.7	78.5	68	65.3	0	1	112	0.00	30.028 
11:45	77.0	77.0	78.8	67	65.2	0	1	112	0.00	30.027 
11:50	76.8	76.8	78.6	67	65.0	0	2	112	0.00	30.027 
11:55	76.5	76.5	78.3	67	64.7	0	1	112	0.00	30.027 
12:00	76.0	76.0	77.8	66	63.8	0	1	112	0.00	30.028 
12:05	75.8	75.8	77.4	70	65.3	0	1	112	0.00	30.028 
12:10	76.0	76.0	77.8	67	64.2	0	1	112	0.00	30.028 
12:15	76.5	76.5	78.3	66	64.3	0	1	112	0.00	30.028 
12:20	77.2	77.2	79.0	65	64.5	0	0	---	0.00	30.028 
12:25	77.9	77.9	79.7	64	64.7	0	0	---	0.00	30.028 
12:30	78.3	78.3	80.1	63	64.6	0	0	---	0.00	30.026 
12:35	78.8	78.8	80.7	63	65.1	0	3	112	0.00	30.026 
12:40	78.1	78.1	79.8	61	63.5	1	4	0	0.00	30.026 
12:45	77.4	77.4	79.2	62	63.3	0	2	0	0.00	30.028 
12:50	77.6	77.6	79.4	63	64.0	0	1	0	0.00	30.028 
12:55	77.4	77.4	79.2	63	63.8	1	3	22	0.00	30.028 
13:00	77.4	77.4	79.2	62	63.3	0	1	22	0.00	30.023 
13:05	77.6	77.6	79.4	64	64.4	0	1	22	0.00	30.023 
13:10	77.2	77.2	79.0	65	64.5	1	2	22	0.00	30.023 
13:15	77.0	77.0	78.8	65	64.3	2	6	90	0.00	30.023 
13:20	77.2	77.2	79.0	67	65.4	0	2	90	0.00	30.023 
13:25	76.8	76.8	78.6	64	63.7	0	1	90	0.00	30.023 
13:30	77.0	77.0	78.8	65	64.3	0	2	90	0.00	30.018 
13:35	77.7	77.7	79.5	65	65.0	1	4	90	0.00	30.018 
13:40	77.9	77.9	79.6	62	63.8	1	2	68	0.00	30.018 
13:45	77.7	77.7	79.4	61	63.2	0	2	68	0.00	30.015 
13:50	78.1	78.1	80.0	67	66.2	0	2	68	0.00	30.015 
13:55	78.6	78.6	80.4	62	64.5	1	4	68	0.00	30.015 
14:00	79.0	79.0	81.0	65	66.2	1	3	68	0.00	30.012 
14:05	79.6	79.6	81.6	63	65.9	0	2	68	0.00	30.012 
14:10	79.0	79.0	80.6	59	63.4	1	3	68	0.00	30.012 
14:15	78.6	78.6	80.3	60	63.5	0	2	68	0.00	30.012 
14:20	78.6	78.6	80.5	64	65.4	0	0	---	0.00	30.012 
14:25	79.0	79.0	80.6	59	63.4	1	4	68	0.00	30.012 
14:30	79.6	79.6	81.5	62	65.4	1	4	68	0.00	30.006 
14:35	79.4	79.4	81.3	62	65.2	2	4	68	0.00	30.006 
14:40	79.0	79.0	80.9	63	65.3	2	3	68	0.00	30.006 
14:45	78.8	78.8	80.7	63	65.1	1	4	68	0.00	29.999 
14:50	78.8	78.8	80.8	65	66.0	1	3	68	0.00	29.999 
14:55	79.2	79.2	81.0	61	64.6	1	3	68	0.00	29.999 
15:00	79.4	79.4	81.0	59	63.8	1	4	68	0.00	29.995 
15:05	79.9	79.9	81.7	60	64.7	0	1	68	0.00	29.995 
15:10	80.3	80.3	81.7	56	63.1	0	1	68	0.00	29.995 
15:15	80.5	80.5	82.1	57	63.8	0	1	68	0.00	29.991 
15:20	80.5	80.5	82.3	59	64.8	0	2	68	0.00	29.991 
15:25	80.1	80.1	81.9	60	64.9	0	1	68	0.00	29.991 
15:30	80.1	80.1	81.7	58	64.0	1	3	68	0.00	29.987 
15:35	80.5	80.5	82.7	62	66.3	1	2	68	0.00	29.987 
15:40	81.1	81.1	83.3	61	66.4	0	2	68	0.00	29.987 
15:45	81.6	81.6	83.2	56	64.4	0	2	68	0.00	29.985 
15:50	81.4	81.4	82.8	55	63.7	0	3	68	0.00	29.985 
15:55	81.1	81.1	82.1	52	61.8	0	1	68	0.00	29.985 
16:00	81.1	81.1	82.3	54	62.9	0	2	68	0.00	29.984 
16:05	81.4	81.4	82.4	52	62.1	1	4	68	0.00	29.984 
16:10	80.9	80.9	82.1	54	62.7	0	1	68	0.00	29.984 
16:15	80.7	80.7	82.0	55	63.0	0	1	68	0.00	29.983 
16:20	80.5	80.5	81.5	52	61.2	0	1	68	0.00	29.983 
16:25	80.5	80.5	81.5	52	61.2	0	2	68	0.00	29.983 
16:30	80.7	80.7	81.7	52	61.4	0	1	68	0.00	29.983 
16:35	81.1	81.1	82.3	54	62.9	0	1	68	0.00	29.983 
16:40	81.2	81.2	81.8	49	60.2	1	3	68	0.00	29.983 
16:45	81.1	81.1	81.8	50	60.7	0	3	68	0.00	29.981 
16:50	81.4	81.4	82.0	49	60.4	0	2	68	0.00	29.981 
16:55	81.6	81.6	82.1	48	60.0	0	2	68	0.00	29.981 
17:00	81.6	81.6	82.2	49	60.6	0	1	68	0.00	29.980 
17:05	81.4	81.4	82.1	50	60.9	0	1	68	0.00	29.980 
17:10	81.6	81.6	82.5	51	61.7	0	2	68	0.00	29.980 
17:15	81.6	81.6	82.3	50	61.1	0	2	68	0.00	29.977 
17:20	81.1	81.1	81.8	50	60.7	0	1	68	0.00	29.977 
17:25	80.5	80.5	81.5	52	61.2	0	1	68	0.00	29.977 
17:30	80.1	80.1	81.1	52	60.9	0	0	---	0.00	29.974 
17:35	80.1	80.1	81.4	55	62.4	0	0	---	0.00	29.974 
17:40	80.9	80.9	82.0	53	62.1	0	1	68	0.00	29.974 
17:45	81.6	81.6	82.8	53	62.8	0	3	68	0.00	29.972 
17:50	81.8	81.8	82.6	50	61.3	1	4	68	0.00	29.972 
17:55	81.8	81.8	82.6	50	61.3	1	3	68	0.00	29.972 
18:00	81.4	81.4	82.4	52	62.1	0	2	68	0.00	29.967 
18:05	80.9	80.9	81.9	52	61.6	0	2	68	0.00	29.967 
18:10	80.7	80.7	81.6	51	60.9	0	3	68	0.00	29.967 
18:15	80.3	80.3	81.3	52	61.0	0	2	68	0.00	29.967 
18:20	80.1	80.1	81.4	55	62.4	0	1	68	0.00	29.967 
18:25	80.3	80.3	81.4	53	61.6	0	1	68	0.00	29.967 
18:30	80.7	80.7	82.0	55	63.0	0	1	68	0.00	29.967 
18:35	80.3	80.3	81.6	55	62.6	0	1	68	0.00	29.967 
18:40	79.9	79.9	81.2	55	62.3	0	1	68	0.00	29.967 
18:45	79.6	79.6	80.9	55	62.0	0	1	68	0.00	29.967 
18:50	79.9	79.9	81.1	54	61.7	0	1	68	0.00	29.967 
18:55	80.1	80.1	81.4	55	62.4	0	3	68	0.00	29.967 
19:00	80.1	80.1	81.1	52	60.9	0	3	68	0.00	29.965 
19:05	80.1	80.1	81.3	54	61.9	0	0	---	0.00	29.965 
19:10	80.1	80.1	81.3	54	61.9	0	1	68	0.00	29.965 
19:15	80.1	80.1	81.3	54	61.9	0	1	68	0.00	29.965 
19:20	80.1	80.1	81.4	55	62.4	0	0	---	0.00	29.965 
19:25	80.1	80.1	81.4	55	62.4	0	1	68	0.00	29.965 
19:30	80.1	80.1	81.3	54	61.9	0	1	68	0.00	29.963 
19:35	79.9	79.9	81.3	56	62.8	0	0	---	0.00	29.963 
19:40	79.9	79.9	81.1	54	61.7	0	1	68	0.00	29.963 
19:45	79.8	79.8	81.0	54	61.7	0	1	68	0.00	29.964 
19:50	79.8	79.8	81.0	54	61.7	0	2	68	0.00	29.964 
19:55	79.6	79.6	80.8	54	61.5	0	1	68	0.00	29.964 
20:00	79.6	79.6	80.8	54	61.5	0	0	---	0.00	29.964 
20:05	79.4	79.4	80.5	52	60.2	0	2	68	0.00	29.964 
20:10	79.4	79.4	80.5	52	60.2	0	1	68	0.00	29.964 
20:15	79.4	79.4	80.5	53	60.8	0	0	---	0.00	29.964 
20:20	79.4	79.4	80.6	54	61.3	0	0	---	0.00	29.964 
20:25	79.2	79.2	80.4	54	61.1	0	0	---	0.00	29.964 
20:30	79.0	79.0	80.3	54	60.9	0	0	---	0.00	29.965 
20:35	78.8	78.8	80.1	55	61.2	0	1	68	0.00	29.965 
20:40	78.6	78.6	80.0	55	61.1	0	0	---	0.00	29.965 
20:45	78.3	78.3	79.8	56	61.3	0	0	---	0.00	29.966 
20:50	77.9	77.9	79.5	57	61.4	0	0	---	0.00	29.966 
20:55	77.7	77.7	79.3	57	61.2	0	0	---	0.00	29.966 
21:00	77.4	77.4	79.1	58	61.4	0	0	---	0.00	29.968 
21:05	77.0	77.0	78.8	59	61.6	0	0	---	0.00	29.968 
21:10	76.7	76.7	78.5	60	61.7	0	0	---	0.00	29.968 
21:15	76.3	76.3	78.2	61	61.8	0	0	---	0.00	29.972 
21:20	76.0	76.0	78.0	61	61.6	0	0	---	0.00	29.972 
21:25	75.6	75.6	77.7	62	61.6	0	0	---	0.00	29.972 
21:30	75.1	75.1	77.3	63	61.6	0	0	---	0.00	29.977 
21:35	74.6	74.6	74.6	65	62.0	0	0	---	0.00	29.977 
21:40	74.2	74.2	74.2	65	61.7	0	0	---	0.00	29.977 
21:45	73.9	73.9	73.9	67	62.2	0	0	---	0.00	29.983 
21:50	73.3	73.3	73.3	69	62.5	0	0	---	0.00	29.983 
21:55	73.0	73.0	73.0	71	63.0	0	1	68	0.00	29.983 
22:00	73.2	73.2	73.2	73	64.0	0	2	68	0.00	29.985 
22:05	73.2	73.2	73.2	74	64.4	1	2	68	0.00	29.985 
22:10	73.3	73.3	73.3	75	64.9	0	2	68	0.00	29.985 
22:15	73.2	73.2	73.2	76	65.2	0	1	68	0.00	29.988 
22:20	73.2	73.2	73.2	76	65.2	0	2	68	0.00	29.988 
22:25	73.0	73.0	73.0	76	65.0	0	1	68	0.00	29.988 
22:30	73.0	73.0	73.0	77	65.3	0	1	68	0.00	29.997 
22:35	73.0	73.0	73.0	77	65.3	0	1	68	0.00	29.997 
22:40	73.0	73.0	73.0	77	65.3	0	0	---	0.00	29.997 
22:45	72.8	72.8	72.8	77	65.2	0	0	---	0.00	30.004 
22:50	72.7	72.7	72.7	78	65.4	0	1	68	0.00	30.004 
22:55	72.5	72.5	72.5	79	65.6	0	0	---	0.00	30.004 
23:00	72.3	72.3	72.3	79	65.4	0	0	---	0.00	30.008 
23:05	72.1	72.1	72.1	80	65.6	0	0	---	0.00	30.008 
23:10	71.8	71.8	71.8	80	65.3	0	0	---	0.00	30.008 
23:15	71.6	71.6	71.6	81	65.4	0	0	---	0.00	30.005 
23:20	71.5	71.5	71.5	81	65.4	0	0	---	0.00	30.005 
23:25	71.3	71.3	71.3	81	65.2	0	0	---	0.00	30.005 
23:30	70.9	70.9	70.9	82	65.1	0	0	---	0.00	30.009 
23:35	70.8	70.8	70.8	83	65.4	0	0	---	0.00	30.009 
23:40	70.6	70.6	70.6	83	65.2	0	0	---	0.00	30.009 
23:45	70.4	70.4	70.4	84	65.3	0	0	---	0.00	30.012 
23:50	70.3	70.3	70.3	84	65.2	0	0	---	0.00	30.012 
23:55	70.1	70.1	70.1	84	65.0	0	0	---	0.00	30.012 

CoCoRaHS
IN-AL-39
A2 Web Hosting
Creative Commons License
GoDaddy
search engine by freefind advanced

loaded 2018-11-19 11:38:43 • last modified 2010-11-18 10:43:29
Privacy PolicyDisclaimer
• wx.awcolley.com is powered by PmWiki v.2002016 •
• all content (unless otherwise noted) © 2018 A W Colley